createdAt,value
2023-04-08T09:18:28.923Z,10.17
2023-04-08T09:21:14.744Z,10.19
2023-04-08T09:23:44.403Z,10.18
2023-04-08T09:26:14.261Z,10.37
2023-04-08T09:31:24.904Z,10.41
2023-04-08T09:34:15.805Z,10.41
2023-04-08T09:36:44.881Z,10.47
2023-04-08T09:39:14.747Z,10.42
2023-04-08T09:41:44.118Z,10.40
2023-04-08T09:44:13.055Z,10.35
2023-04-08T09:46:48.787Z,10.70
2023-04-08T09:49:27.358Z,10.92
2023-04-08T09:52:01.120Z,11.24
2023-04-08T09:54:43.735Z,11.42
2023-04-08T09:57:15.401Z,11.19
2023-04-08T09:59:54.155Z,11.09
2023-04-08T10:02:32.392Z,11.28
2023-04-08T10:05:08.338Z,11.41
2023-04-08T10:07:36.997Z,11.14
2023-04-08T10:10:05.931Z,11.51
2023-04-08T10:12:35.353Z,11.67
2023-04-08T10:15:29.922Z,11.45
2023-04-08T10:18:22.209Z,11.38
2023-04-08T10:20:51.815Z,10.91
2023-04-08T10:23:21.305Z,10.82
2023-04-08T10:25:50.311Z,10.84
2023-04-08T10:28:27.721Z,10.76
2023-04-08T10:30:57.493Z,10.58
2023-04-08T10:33:33.062Z,10.84
2023-04-08T10:36:11.434Z,10.82
2023-04-08T10:38:39.910Z,10.44
2023-04-08T10:41:10.130Z,11.01
2023-04-08T10:43:41.464Z,11.15
2023-04-08T10:46:11.971Z,11.59
2023-04-08T10:48:40.061Z,11.45
2023-04-08T10:51:09.439Z,11.42
2023-04-08T10:53:39.478Z,11.36
2023-04-08T10:56:09.412Z,11.56
2023-04-08T10:58:38.479Z,11.77
2023-04-08T11:01:08.389Z,11.41
2023-04-08T11:03:38.432Z,11.22
2023-04-08T11:06:07.591Z,11.62
2023-04-08T11:08:38.734Z,11.63
2023-04-08T11:11:11.197Z,11.77
2023-04-08T11:13:52.143Z,11.80
2023-04-08T11:16:22.803Z,11.67
2023-04-08T11:18:52.595Z,11.80
2023-04-08T11:21:22.376Z,11.80
2023-04-08T11:23:53.594Z,11.93
2023-04-08T11:26:22.709Z,12.40
2023-04-08T11:28:52.148Z,12.03
2023-04-08T11:31:24.317Z,12.23
2023-04-08T11:33:55.186Z,12.49
2023-04-08T11:36:23.135Z,12.27
2023-04-08T11:38:55.799Z,12.43
2023-04-08T11:41:24.022Z,12.27
2023-04-08T11:43:56.549Z,12.12
2023-04-08T11:46:25.149Z,11.88
2023-04-08T11:49:01.595Z,11.72
2023-04-08T11:51:31.087Z,12.16
2023-04-08T11:54:00.500Z,12.30
2023-04-08T11:56:30.593Z,12.57
2023-04-08T11:58:58.707Z,12.52
2023-04-08T12:01:28.330Z,12.74
2023-04-08T12:03:58.498Z,12.62
2023-04-08T12:06:28.289Z,12.24
2023-04-08T12:08:57.717Z,12.25
2023-04-08T12:11:27.057Z,12.09
2023-04-08T12:13:55.106Z,12.21
2023-04-08T12:16:23.153Z,12.57
2023-04-08T12:18:51.210Z,12.30
2023-04-08T12:21:19.145Z,12.22
2023-04-08T12:23:47.150Z,12.33
2023-04-08T12:26:15.534Z,12.79
2023-04-08T12:28:45.179Z,12.45
2023-04-08T12:31:14.586Z,12.45
2023-04-08T12:33:42.786Z,12.13
2023-04-08T12:36:13.523Z,12.49
2023-04-08T12:38:42.102Z,13.00
2023-04-08T12:41:10.173Z,12.69
2023-04-08T12:43:39.133Z,12.54
2023-04-08T12:46:08.526Z,12.46
2023-04-08T12:48:36.889Z,12.53
2023-04-08T12:51:04.883Z,12.50
2023-04-08T12:53:32.735Z,12.45
2023-04-08T12:56:00.814Z,12.24
2023-04-08T12:58:29.379Z,12.01
2023-04-08T13:00:57.693Z,11.98
2023-04-08T13:03:29.546Z,11.79
2023-04-08T13:05:59.122Z,11.73
2023-04-08T13:08:27.178Z,11.67
2023-04-08T13:10:55.778Z,11.44
2023-04-08T13:13:24.266Z,11.32
2023-04-08T13:15:52.288Z,11.36
2023-04-08T13:18:20.463Z,11.36
2023-04-08T13:20:49.867Z,11.25
2023-04-08T13:23:18.808Z,11.28
2023-04-08T13:25:46.886Z,11.20
2023-04-08T13:28:14.826Z,11.71
2023-04-08T13:30:43.814Z,11.89
2023-04-08T13:33:12.126Z,11.93
2023-04-08T13:35:40.858Z,12.26
2023-04-08T13:38:13.139Z,12.55
2023-04-08T13:40:41.711Z,12.74
2023-04-08T13:43:09.854Z,12.85
2023-04-08T13:45:37.912Z,12.96
2023-04-08T13:48:06.428Z,12.99
2023-04-08T13:50:34.421Z,12.71
2023-04-08T13:53:02.649Z,12.75
2023-04-08T13:55:31.974Z,12.67
2023-04-08T13:58:00.280Z,12.65
2023-04-08T14:00:28.325Z,12.70
2023-04-08T14:02:56.584Z,12.70
2023-04-08T14:05:24.572Z,12.53
2023-04-08T14:07:52.540Z,12.69
2023-04-08T14:10:20.815Z,12.69
2023-04-08T14:12:52.634Z,12.39
2023-04-08T14:15:20.828Z,11.89
2023-04-08T14:17:49.840Z,11.63
2023-04-08T14:20:18.311Z,11.23
2023-04-08T14:22:49.473Z,10.37
2023-04-08T14:25:17.801Z,9.96
2023-04-08T14:27:56.722Z,9.83
2023-04-08T14:30:28.889Z,9.76
2023-04-08T14:32:59.403Z,9.67
2023-04-08T14:35:28.237Z,9.64
2023-04-08T14:37:56.662Z,9.67
2023-04-08T14:40:25.659Z,9.81
2023-04-08T14:42:54.171Z,9.92
2023-04-08T14:45:22.191Z,10.01
2023-04-08T14:47:51.942Z,10.04
2023-04-08T14:50:20.181Z,10.17
2023-04-08T14:52:49.168Z,10.17
2023-04-08T14:55:17.676Z,10.36
2023-04-08T14:57:45.550Z,10.31
2023-04-08T15:00:15.042Z,10.43
2023-04-08T15:02:44.398Z,10.51
2023-04-08T15:05:14.269Z,10.66
2023-04-08T15:07:43.180Z,10.75
2023-04-08T15:10:11.953Z,10.83
2023-04-08T15:12:39.879Z,10.92
2023-04-08T15:15:09.695Z,10.58
2023-04-08T15:17:38.224Z,10.82
2023-04-08T15:20:07.719Z,10.95
2023-04-08T15:22:37.158Z,10.92
2023-04-08T15:25:06.454Z,10.92
2023-04-08T15:27:36.344Z,11.02
2023-04-08T15:30:04.378Z,10.91
2023-04-08T15:32:32.601Z,10.93
2023-04-08T15:35:00.743Z,10.89
2023-04-08T15:37:30.193Z,10.97
2023-04-08T15:39:59.850Z,10.91
2023-04-08T15:42:28.089Z,10.84
2023-04-08T15:44:56.059Z,10.90
2023-04-08T15:47:24.357Z,10.99
2023-04-08T15:49:55.908Z,10.84
2023-04-08T15:52:26.035Z,10.86
2023-04-08T15:54:54.356Z,10.65
2023-04-08T15:57:26.881Z,10.41
2023-04-08T15:59:55.126Z,10.21
2023-04-08T16:02:23.236Z,10.10
2023-04-08T16:04:51.786Z,10.04
2023-04-08T16:07:21.243Z,9.95
2023-04-08T16:09:49.412Z,9.93
2023-04-08T16:12:17.645Z,9.85
2023-04-08T16:14:47.974Z,9.90
2023-04-08T16:17:16.605Z,9.88
2023-04-08T16:19:45.001Z,9.85
2023-04-08T16:22:13.025Z,9.87
2023-04-08T16:24:41.448Z,9.82
2023-04-08T16:27:09.812Z,9.58
2023-04-08T16:29:38.021Z,9.39
2023-04-08T16:32:07.526Z,9.25
2023-04-08T16:34:36.385Z,9.04
2023-04-08T16:37:04.712Z,8.83
2023-04-08T16:39:32.833Z,8.54
2023-04-08T16:42:01.268Z,8.46
2023-04-08T16:44:29.463Z,8.45
2023-04-08T16:46:57.855Z,8.42
2023-04-08T16:49:29.213Z,8.44
2023-04-08T16:51:57.224Z,8.44
2023-04-08T16:54:25.825Z,8.42
2023-04-08T16:56:53.759Z,8.40
2023-04-08T16:59:22.001Z,8.46
2023-04-08T17:01:50.590Z,8.60
2023-04-08T17:04:18.559Z,8.60
2023-04-08T17:06:49.487Z,8.72
2023-04-08T17:09:18.020Z,8.82
2023-04-08T17:11:47.311Z,8.98
2023-04-08T17:14:15.679Z,8.96
2023-04-08T17:16:43.902Z,9.11
2023-04-08T17:19:14.210Z,9.15
2023-04-08T17:21:43.310Z,9.19
2023-04-08T17:24:14.424Z,9.18
2023-04-08T17:26:43.393Z,9.11
2023-04-08T17:29:13.498Z,9.18
2023-04-08T17:31:43.932Z,9.16
2023-04-08T17:34:12.780Z,9.26
2023-04-08T17:36:41.095Z,9.19
2023-04-08T17:39:09.401Z,9.10
2023-04-08T17:41:40.720Z,9.08
2023-04-08T17:44:09.388Z,9.07
2023-04-08T17:46:37.754Z,9.07
2023-04-08T17:49:06.645Z,9.09
2023-04-08T17:51:34.568Z,8.92
2023-04-08T17:54:02.605Z,8.78
2023-04-08T17:56:31.345Z,8.79
2023-04-08T17:59:01.921Z,8.75
2023-04-08T18:01:30.172Z,8.65
2023-04-08T18:03:58.343Z,8.56
2023-04-08T18:06:28.448Z,8.45
2023-04-08T18:08:57.012Z,8.57
2023-04-08T18:11:27.332Z,8.53
2023-04-08T18:13:56.959Z,8.66
2023-04-08T18:16:27.175Z,8.60
2023-04-08T18:18:55.558Z,8.74
2023-04-08T18:21:23.551Z,8.62
2023-04-08T18:23:51.810Z,8.78
2023-04-08T18:26:19.972Z,8.41
2023-04-08T18:28:48.125Z,8.61
2023-04-08T18:31:16.811Z,8.53
2023-04-08T18:33:46.953Z,8.49
2023-04-08T18:36:15.186Z,8.49
2023-04-08T18:38:44.746Z,8.41
2023-04-08T18:41:13.385Z,8.37
2023-04-08T18:43:42.103Z,8.15
2023-04-08T18:46:10.228Z,8.17
2023-04-08T18:48:38.172Z,8.10
2023-04-08T18:51:08.250Z,7.99
2023-04-08T18:53:36.329Z,8.07
2023-04-08T18:56:04.916Z,8.08
2023-04-08T18:58:33.769Z,8.03
2023-04-08T19:01:02.078Z,7.99
2023-04-08T19:03:30.101Z,7.96
2023-04-08T19:05:58.741Z,7.92
2023-04-08T19:08:28.447Z,7.86
2023-04-08T19:10:56.921Z,7.81
2023-04-08T19:13:25.154Z,7.70
2023-04-08T19:15:53.619Z,7.68
2023-04-08T19:18:21.675Z,7.55
2023-04-08T19:20:49.738Z,7.60
2023-04-08T19:23:18.954Z,7.61
2023-04-08T19:25:48.709Z,7.57
2023-04-08T19:28:16.738Z,7.61
2023-04-08T19:30:45.655Z,7.56
2023-04-08T19:33:14.280Z,7.67
2023-04-08T19:35:42.802Z,7.09
2023-04-08T19:38:12.139Z,7.57
2023-04-08T19:40:42.126Z,7.53
2023-04-08T19:43:11.966Z,7.58
2023-04-08T19:45:39.909Z,7.29
2023-04-08T19:48:08.193Z,7.58
2023-04-08T19:50:38.806Z,7.10
2023-04-08T19:53:07.236Z,7.52
2023-04-08T19:55:37.606Z,7.54
2023-04-08T19:58:05.731Z,7.55
2023-04-08T20:00:37.669Z,7.52
2023-04-08T20:03:08.324Z,7.62
2023-04-08T20:05:37.072Z,7.61
2023-04-08T20:08:05.343Z,7.70
2023-04-08T20:10:33.318Z,7.75
2023-04-08T20:13:01.348Z,7.80
2023-04-08T20:15:29.381Z,7.77
2023-04-08T20:17:59.100Z,7.68
2023-04-08T20:20:28.951Z,7.74
2023-04-08T20:22:57.893Z,7.95
2023-04-08T20:25:26.107Z,7.74
2023-04-08T20:27:54.394Z,7.86
2023-04-08T20:30:22.864Z,7.85
2023-04-08T20:32:51.716Z,7.81
2023-04-08T20:35:22.287Z,7.72
2023-04-08T20:37:50.342Z,7.70
2023-04-08T20:40:18.632Z,7.29
2023-04-08T20:42:46.901Z,7.65
2023-04-08T20:45:14.898Z,7.77
2023-04-08T20:47:44.666Z,7.78
2023-04-08T20:50:13.713Z,7.77
2023-04-08T20:52:43.370Z,7.75
2023-04-08T20:55:11.577Z,7.62
2023-04-08T20:57:40.486Z,7.56
2023-04-08T21:00:10.347Z,7.45
2023-04-08T21:02:38.837Z,7.45
2023-04-08T21:05:07.324Z,7.41
2023-04-08T21:07:36.179Z,7.42
2023-04-08T21:10:06.470Z,7.40
2023-04-08T21:12:34.672Z,7.38
2023-04-08T21:15:02.812Z,7.35
2023-04-08T21:17:31.295Z,7.38
2023-04-08T21:19:59.629Z,7.46
2023-04-08T21:22:28.894Z,7.29
2023-04-08T21:24:57.972Z,7.34
2023-04-08T21:27:27.589Z,7.26
2023-04-08T21:29:56.053Z,7.18
2023-04-08T21:32:24.610Z,6.55
2023-04-08T21:34:54.495Z,7.25
2023-04-08T21:37:23.965Z,7.29
2023-04-08T21:39:52.618Z,7.40
2023-04-08T21:42:23.184Z,7.37
2023-04-08T21:44:52.642Z,7.43
2023-04-08T21:47:20.957Z,7.50
2023-04-08T21:49:49.508Z,7.38
2023-04-08T21:52:18.278Z,7.40
2023-04-08T21:54:50.894Z,7.49
2023-04-08T21:57:20.978Z,7.09
2023-04-08T21:59:50.291Z,7.37
2023-04-08T22:02:20.863Z,7.41
2023-04-08T22:04:50.725Z,7.46
2023-04-08T22:07:18.860Z,7.41
2023-04-08T22:09:46.946Z,7.47
2023-04-08T22:12:14.966Z,7.40
2023-04-08T22:14:42.999Z,7.39
2023-04-08T22:17:13.047Z,7.39
2023-04-08T22:19:42.509Z,7.26
2023-04-08T22:22:10.775Z,7.18
2023-04-08T22:24:38.879Z,7.20
2023-04-08T22:27:07.223Z,7.16
2023-04-08T22:29:35.499Z,7.28
2023-04-08T22:32:03.689Z,7.21
2023-04-08T22:34:32.652Z,7.14
2023-04-08T22:37:02.057Z,7.10
2023-04-08T22:39:31.036Z,7.11
2023-04-08T22:41:59.016Z,7.04
2023-04-08T22:44:27.922Z,6.95
2023-04-08T22:46:56.063Z,6.95
2023-04-08T22:49:24.409Z,6.88
2023-04-08T22:51:52.563Z,6.86
2023-04-08T22:54:22.781Z,6.87
2023-04-08T22:56:50.917Z,6.82
2023-04-08T22:59:18.968Z,6.58
2023-04-08T23:01:48.917Z,6.86
2023-04-08T23:04:16.994Z,6.81
2023-04-08T23:06:45.201Z,6.78
2023-04-08T23:09:13.279Z,6.76
2023-04-08T23:11:43.839Z,6.72
2023-04-08T23:14:14.030Z,6.82
2023-04-08T23:16:43.267Z,6.81
2023-04-08T23:19:11.594Z,6.82
2023-04-08T23:21:47.138Z,6.85
2023-04-08T23:24:15.358Z,6.87
2023-04-08T23:26:45.479Z,6.94
2023-04-08T23:29:13.912Z,6.96
2023-04-08T23:31:41.936Z,7.01
2023-04-08T23:34:10.546Z,7.07
2023-04-08T23:36:39.245Z,7.19
2023-04-08T23:39:07.716Z,7.15
2023-04-08T23:41:37.395Z,7.18
2023-04-08T23:44:08.758Z,7.06
2023-04-08T23:46:37.064Z,7.15
2023-04-08T23:49:05.447Z,7.13
2023-04-08T23:51:34.086Z,6.89
2023-04-08T23:54:02.060Z,7.12
2023-04-08T23:56:30.126Z,7.15
2023-04-08T23:58:58.117Z,7.18
